createdAt,value
2024-01-16T00:00:53.739Z,9.50
2024-01-16T00:01:53.625Z,9.20
2024-01-16T00:02:53.716Z,8.90
2024-01-16T00:03:53.718Z,8.90
2024-01-16T00:04:53.661Z,9.30
2024-01-16T00:05:53.661Z,8.90
2024-01-16T00:06:53.676Z,8.80
2024-01-16T00:07:53.567Z,9.10
2024-01-16T00:08:53.685Z,9.00
2024-01-16T00:09:53.589Z,8.70
2024-01-16T00:10:53.581Z,7.60
2024-01-16T00:11:53.571Z,8.00
2024-01-16T00:12:53.588Z,8.90
2024-01-16T00:13:53.837Z,8.30
2024-01-16T00:14:53.498Z,9.50
2024-01-16T00:15:53.532Z,9.10
2024-01-16T00:16:54.626Z,8.70
2024-01-16T00:17:53.591Z,9.00
2024-01-16T00:18:53.508Z,9.30
2024-01-16T00:19:53.419Z,9.00
2024-01-16T00:20:53.472Z,9.70
2024-01-16T00:21:53.434Z,8.90
2024-01-16T00:22:53.369Z,9.40
2024-01-16T00:23:53.531Z,9.70
2024-01-16T00:24:53.346Z,9.10
2024-01-16T00:25:53.505Z,9.00
2024-01-16T00:26:53.442Z,8.30
2024-01-16T00:27:53.345Z,8.70
2024-01-16T00:28:53.306Z,8.90
2024-01-16T00:29:53.453Z,8.40
2024-01-16T00:30:53.305Z,9.20
2024-01-16T00:31:53.305Z,8.50
2024-01-16T00:32:53.305Z,9.10
2024-01-16T00:33:53.304Z,9.20
2024-01-16T00:34:53.249Z,9.00
2024-01-16T00:35:53.342Z,8.60
2024-01-16T00:36:53.261Z,7.90
2024-01-16T00:37:53.205Z,8.40
2024-01-16T00:38:53.186Z,8.50
2024-01-16T00:39:53.172Z,9.40
2024-01-16T00:40:53.161Z,8.10
2024-01-16T00:41:53.197Z,9.30
2024-01-16T00:42:53.134Z,8.10
2024-01-16T00:43:53.136Z,8.50
2024-01-16T00:44:53.141Z,8.50
2024-01-16T00:45:53.193Z,8.30
2024-01-16T00:46:53.131Z,9.00
2024-01-16T00:47:53.174Z,8.30
2024-01-16T00:48:53.241Z,8.00
2024-01-16T00:49:53.146Z,7.90
2024-01-16T00:50:53.111Z,8.30
2024-01-16T00:51:53.055Z,7.60
2024-01-16T00:52:53.199Z,8.30
2024-01-16T00:53:53.118Z,7.80
2024-01-16T00:54:53.052Z,7.80
2024-01-16T00:55:53.088Z,8.50
2024-01-16T00:56:53.092Z,7.80
2024-01-16T00:57:53.043Z,8.10
2024-01-16T00:58:53.044Z,7.40
2024-01-16T00:59:53.020Z,7.70
2024-01-16T01:00:53.028Z,7.50
2024-01-16T01:01:53.002Z,7.30
2024-01-16T01:02:53.005Z,7.60
2024-01-16T01:03:53.007Z,7.30
2024-01-16T01:04:52.922Z,8.10
2024-01-16T01:05:52.886Z,8.00
2024-01-16T01:06:52.866Z,7.40
2024-01-16T01:07:52.884Z,8.50
2024-01-16T01:08:52.835Z,7.40
2024-01-16T01:09:52.814Z,8.20
2024-01-16T01:10:52.919Z,7.70
2024-01-16T01:11:52.849Z,8.30
2024-01-16T01:12:52.813Z,8.20
2024-01-16T01:13:52.771Z,8.00
2024-01-16T01:14:52.894Z,7.80
2024-01-16T01:15:52.757Z,8.20
2024-01-16T01:16:52.755Z,7.90
2024-01-16T01:17:52.795Z,8.80
2024-01-16T01:18:52.847Z,8.40
2024-01-16T01:19:52.718Z,7.70
2024-01-16T01:20:52.721Z,7.90
2024-01-16T01:21:52.832Z,7.90
2024-01-16T01:22:52.677Z,7.40
2024-01-16T01:23:52.757Z,7.90
2024-01-16T01:24:52.651Z,7.40
2024-01-16T01:25:52.653Z,8.00
2024-01-16T01:26:52.852Z,7.70
2024-01-16T01:27:52.900Z,7.20
2024-01-16T01:28:52.708Z,8.00
2024-01-16T01:29:52.709Z,7.30
2024-01-16T01:30:52.967Z,7.10
2024-01-16T01:31:52.627Z,7.80
2024-01-16T01:32:52.924Z,7.10
2024-01-16T01:33:52.560Z,6.90
2024-01-16T01:34:52.537Z,7.00
2024-01-16T01:35:52.594Z,7.00
2024-01-16T01:36:52.516Z,7.50
2024-01-16T01:37:52.480Z,6.90
2024-01-16T01:38:52.481Z,6.70
2024-01-16T01:39:52.513Z,7.70
2024-01-16T01:40:52.412Z,6.60
2024-01-16T01:41:52.443Z,7.40
2024-01-16T01:42:52.371Z,7.20
2024-01-16T01:43:52.368Z,6.60
2024-01-16T01:44:52.438Z,7.50
2024-01-16T01:45:52.381Z,6.80
2024-01-16T01:46:52.395Z,6.60
2024-01-16T01:47:52.446Z,7.30
2024-01-16T01:48:52.467Z,6.90
2024-01-16T01:49:52.325Z,7.10
2024-01-16T01:50:52.354Z,7.20
2024-01-16T01:51:52.333Z,6.60
2024-01-16T01:52:52.267Z,7.10
2024-01-16T01:53:52.505Z,6.50
2024-01-16T01:54:52.237Z,6.70
2024-01-16T01:55:52.248Z,6.80
2024-01-16T01:56:52.276Z,7.80
2024-01-16T01:57:52.202Z,7.50
2024-01-16T01:58:52.224Z,6.90
2024-01-16T01:59:52.236Z,7.10
2024-01-16T02:00:52.193Z,7.20
2024-01-16T02:01:52.131Z,6.90
2024-01-16T02:02:52.197Z,7.20
2024-01-16T02:03:52.188Z,7.40
2024-01-16T02:04:52.115Z,7.60
2024-01-16T02:05:53.210Z,6.90
2024-01-16T02:06:52.108Z,6.40
2024-01-16T02:07:52.079Z,6.00
2024-01-16T02:08:52.161Z,6.20
2024-01-16T02:09:52.096Z,7.00
2024-01-16T02:10:52.056Z,6.70
2024-01-16T02:11:52.172Z,6.60
2024-01-16T02:12:52.049Z,6.70
2024-01-16T02:13:52.032Z,6.70
2024-01-16T02:14:52.140Z,6.10
2024-01-16T02:15:51.978Z,6.90
2024-01-16T02:16:51.984Z,6.70
2024-01-16T02:17:52.032Z,6.20
2024-01-16T02:18:51.913Z,6.60
2024-01-16T02:19:51.993Z,6.80
2024-01-16T02:20:52.003Z,6.40
2024-01-16T02:21:51.898Z,6.40
2024-01-16T02:22:51.862Z,6.00
2024-01-16T02:23:51.986Z,6.70
2024-01-16T02:24:51.924Z,6.40
2024-01-16T02:25:51.847Z,7.20
2024-01-16T02:26:51.921Z,6.10
2024-01-16T02:27:51.845Z,6.90
2024-01-16T02:28:51.793Z,6.90
2024-01-16T02:29:51.879Z,7.40
2024-01-16T02:30:51.932Z,6.80
2024-01-16T02:31:51.901Z,6.30
2024-01-16T02:32:51.940Z,6.60
2024-01-16T02:33:51.872Z,6.10
2024-01-16T02:34:51.816Z,6.70
2024-01-16T02:35:51.752Z,6.80
2024-01-16T02:36:51.688Z,7.20
2024-01-16T02:37:51.821Z,7.00
2024-01-16T02:38:51.719Z,6.70
2024-01-16T02:39:51.677Z,7.10
2024-01-16T02:40:51.640Z,7.50
2024-01-16T02:41:51.756Z,7.10
2024-01-16T02:42:51.655Z,6.80
2024-01-16T02:43:51.631Z,8.20
2024-01-16T02:44:51.687Z,7.30
2024-01-16T02:45:51.653Z,6.50
2024-01-16T02:46:51.593Z,7.10
2024-01-16T02:47:51.707Z,7.40
2024-01-16T02:48:51.593Z,7.80
2024-01-16T02:49:51.611Z,7.30
2024-01-16T02:50:51.662Z,7.30
2024-01-16T02:51:51.532Z,7.10
2024-01-16T02:52:51.544Z,7.30
2024-01-16T02:53:51.606Z,8.10
2024-01-16T02:54:51.491Z,7.70
2024-01-16T02:55:51.527Z,7.60
2024-01-16T02:56:51.586Z,7.50
2024-01-16T02:57:51.468Z,7.20
2024-01-16T02:58:51.454Z,7.50
2024-01-16T02:59:51.441Z,8.00
2024-01-16T03:00:51.495Z,8.20
2024-01-16T03:01:51.731Z,7.50
2024-01-16T03:02:51.515Z,7.20
2024-01-16T03:03:51.470Z,7.90
2024-01-16T03:04:51.424Z,7.90
2024-01-16T03:05:51.469Z,7.40
2024-01-16T03:06:51.533Z,6.70
2024-01-16T03:07:51.345Z,7.60
2024-01-16T03:08:51.468Z,8.60
2024-01-16T03:09:51.437Z,7.70
2024-01-16T03:10:51.398Z,8.00
2024-01-16T03:11:51.413Z,8.20
2024-01-16T03:12:51.351Z,8.90
2024-01-16T03:13:51.260Z,8.70
2024-01-16T03:14:51.321Z,8.40
2024-01-16T03:15:51.242Z,9.10
2024-01-16T03:16:51.227Z,8.60
2024-01-16T03:17:51.284Z,9.30
2024-01-16T03:18:51.366Z,9.00
2024-01-16T03:19:51.200Z,9.50
2024-01-16T03:20:51.261Z,9.10
2024-01-16T03:21:51.228Z,9.10
2024-01-16T03:22:51.184Z,9.90
2024-01-16T03:23:51.224Z,10.10
2024-01-16T03:24:51.197Z,10.50
2024-01-16T03:25:51.098Z,10.60
2024-01-16T03:26:51.216Z,11.10
2024-01-16T03:27:51.110Z,10.80
2024-01-16T03:28:51.112Z,12.60
2024-01-16T03:29:51.145Z,12.00
2024-01-16T03:30:51.155Z,12.80
2024-01-16T03:31:51.147Z,13.40
2024-01-16T03:32:51.142Z,12.30
2024-01-16T03:33:51.117Z,14.50
2024-01-16T03:34:50.995Z,15.40
2024-01-16T03:35:51.083Z,14.60
2024-01-16T03:36:50.968Z,14.50
2024-01-16T03:37:51.047Z,15.30
2024-01-16T03:38:51.016Z,15.80
2024-01-16T03:39:50.987Z,16.20
2024-01-16T03:40:50.977Z,17.10
2024-01-16T03:41:51.033Z,16.60
2024-01-16T03:42:50.955Z,17.10
2024-01-16T03:43:50.951Z,17.20
2024-01-16T03:44:51.034Z,16.90
2024-01-16T03:45:50.904Z,17.30
2024-01-16T03:46:50.900Z,16.90
2024-01-16T03:47:50.929Z,17.80
2024-01-16T03:48:50.918Z,18.40
2024-01-16T03:49:50.837Z,18.00
2024-01-16T03:50:50.866Z,18.20
2024-01-16T03:51:50.783Z,17.70
2024-01-16T03:52:50.789Z,18.60
2024-01-16T03:53:50.870Z,19.60
2024-01-16T03:54:51.061Z,17.20
2024-01-16T03:55:50.758Z,18.40
2024-01-16T03:56:50.820Z,18.70
2024-01-16T03:57:50.762Z,19.60
2024-01-16T03:58:50.764Z,18.20
2024-01-16T03:59:50.823Z,18.10
2024-01-16T04:00:50.753Z,19.30
2024-01-16T04:01:50.694Z,19.60
2024-01-16T04:02:50.806Z,18.70
2024-01-16T04:03:50.723Z,19.50
2024-01-16T04:04:50.646Z,18.40
2024-01-16T04:05:50.764Z,18.30
2024-01-16T04:06:50.627Z,18.30
2024-01-16T04:07:50.669Z,18.50
2024-01-16T04:08:50.626Z,17.70
2024-01-16T04:09:50.539Z,17.90
2024-01-16T04:10:50.560Z,17.10
2024-01-16T04:11:51.293Z,18.00
2024-01-16T04:12:50.503Z,18.70
2024-01-16T04:13:50.589Z,17.30
2024-01-16T04:14:50.499Z,18.30
2024-01-16T04:15:50.776Z,18.40
2024-01-16T04:16:51.471Z,18.40
2024-01-16T04:17:50.584Z,18.00
2024-01-16T04:18:50.563Z,18.40
2024-01-16T04:19:50.500Z,17.70
2024-01-16T04:20:50.640Z,17.20
2024-01-16T04:21:50.446Z,18.20
2024-01-16T04:22:51.137Z,17.90
2024-01-16T04:23:51.406Z,17.80
2024-01-16T04:24:50.539Z,18.40
2024-01-16T04:25:50.349Z,17.30
2024-01-16T04:26:50.731Z,18.50
2024-01-16T04:27:50.334Z,16.90
2024-01-16T04:28:50.605Z,16.70
2024-01-16T04:29:50.414Z,17.40
2024-01-16T04:30:50.354Z,15.40
2024-01-16T04:31:50.282Z,17.10
2024-01-16T04:32:50.426Z,16.20
2024-01-16T04:33:50.506Z,15.90
2024-01-16T04:34:50.317Z,16.70
2024-01-16T04:35:50.278Z,16.20
2024-01-16T04:36:50.255Z,16.20
2024-01-16T04:37:50.229Z,15.30
2024-01-16T04:38:50.296Z,15.30
2024-01-16T04:39:50.219Z,15.90
2024-01-16T04:40:50.169Z,16.40
2024-01-16T04:41:50.253Z,16.00
2024-01-16T04:42:50.196Z,15.50
2024-01-16T04:43:50.150Z,16.40
2024-01-16T04:44:50.198Z,16.30
2024-01-16T04:45:50.181Z,15.80
2024-01-16T04:46:50.303Z,17.40
2024-01-16T04:47:50.149Z,16.30
2024-01-16T04:48:50.209Z,16.70
2024-01-16T04:49:50.053Z,16.30
2024-01-16T04:50:50.176Z,16.60
2024-01-16T04:51:50.042Z,17.10
2024-01-16T04:52:53.056Z,15.20
2024-01-16T04:53:50.098Z,16.50
2024-01-16T04:54:50.033Z,14.80
2024-01-16T04:55:49.999Z,16.00
2024-01-16T04:56:49.983Z,14.80
2024-01-16T04:57:49.957Z,14.80
2024-01-16T04:58:50.050Z,14.40
2024-01-16T04:59:50.029Z,13.20
2024-01-16T05:00:49.943Z,12.60
2024-01-16T05:01:49.934Z,12.70
2024-01-16T05:02:49.953Z,13.50
2024-01-16T05:03:49.937Z,12.20
2024-01-16T05:04:49.890Z,12.30
2024-01-16T05:05:49.934Z,12.80
2024-01-16T05:06:49.880Z,13.30
2024-01-16T05:07:49.846Z,13.40
2024-01-16T05:08:49.912Z,12.00
2024-01-16T05:09:49.832Z,11.90
2024-01-16T05:10:49.878Z,12.30
2024-01-16T05:11:49.854Z,11.80
2024-01-16T05:12:49.787Z,11.40
2024-01-16T05:13:49.808Z,10.20
2024-01-16T05:14:49.895Z,11.50
2024-01-16T05:15:50.627Z,11.00
2024-01-16T05:16:49.793Z,11.10
2024-01-16T05:17:49.880Z,10.50
2024-01-16T05:18:49.889Z,10.80
2024-01-16T05:19:49.735Z,11.60
2024-01-16T05:20:49.784Z,11.70
2024-01-16T05:21:49.660Z,12.10
2024-01-16T05:22:49.696Z,11.30
2024-01-16T05:23:49.691Z,10.90
2024-01-16T05:24:49.666Z,10.80
2024-01-16T05:25:49.622Z,11.10
2024-01-16T05:26:49.684Z,10.50
2024-01-16T05:27:49.621Z,10.40
2024-01-16T05:28:49.642Z,10.20
2024-01-16T05:29:49.870Z,10.80
2024-01-16T05:30:49.677Z,10.60
2024-01-16T05:31:49.602Z,10.20
2024-01-16T05:32:49.743Z,10.70
2024-01-16T05:33:49.631Z,10.30
2024-01-16T05:34:49.825Z,9.90
2024-01-16T05:35:49.643Z,10.40
2024-01-16T05:36:49.504Z,10.10
2024-01-16T05:37:49.638Z,10.60
2024-01-16T05:38:49.660Z,9.20
2024-01-16T05:39:49.453Z,9.60
2024-01-16T05:40:49.464Z,9.50
2024-01-16T05:41:50.259Z,9.50
2024-01-16T05:42:49.449Z,8.80
2024-01-16T05:43:49.519Z,9.30
2024-01-16T05:44:49.517Z,9.60
2024-01-16T05:45:49.418Z,8.70
2024-01-16T05:46:49.379Z,8.70
2024-01-16T05:47:50.177Z,9.30
2024-01-16T05:48:49.619Z,10.00
2024-01-16T05:49:49.495Z,8.80
2024-01-16T05:50:49.434Z,8.80
2024-01-16T05:51:49.309Z,13.70
2024-01-16T05:52:49.305Z,25.20
2024-01-16T05:53:49.425Z,13.50
2024-01-16T05:54:49.253Z,10.80
2024-01-16T05:55:49.498Z,10.00
2024-01-16T05:56:49.361Z,10.60
2024-01-16T05:57:49.260Z,9.60
2024-01-16T05:58:49.258Z,9.60
2024-01-16T05:59:49.316Z,8.90
2024-01-16T06:00:49.312Z,8.50
2024-01-16T06:01:49.162Z,8.50
2024-01-16T06:02:49.275Z,10.70
2024-01-16T06:03:49.146Z,8.30
2024-01-16T06:04:49.249Z,8.40
2024-01-16T06:05:49.279Z,12.20
2024-01-16T06:06:49.487Z,10.40
2024-01-16T06:07:49.113Z,11.10
2024-01-16T06:08:49.199Z,9.80
2024-01-16T06:09:49.100Z,8.10
2024-01-16T06:10:49.043Z,8.00
2024-01-16T06:11:49.168Z,9.50
2024-01-16T06:12:49.054Z,9.10
2024-01-16T06:13:49.078Z,8.80
2024-01-16T06:14:49.029Z,9.20
2024-01-16T06:15:49.001Z,9.00
2024-01-16T06:16:48.976Z,10.00
2024-01-16T06:17:49.276Z,9.00
2024-01-16T06:18:49.057Z,9.30
2024-01-16T06:19:49.005Z,9.50
2024-01-16T06:20:49.134Z,10.10
2024-01-16T06:21:49.050Z,10.10
2024-01-16T06:22:48.928Z,9.90
2024-01-16T06:23:49.011Z,14.30
2024-01-16T06:24:48.880Z,14.50
2024-01-16T06:25:48.861Z,10.80
2024-01-16T06:26:48.995Z,14.90
2024-01-16T06:27:48.905Z,11.60
2024-01-16T06:28:48.833Z,12.30
2024-01-16T06:29:48.915Z,16.50
2024-01-16T06:30:48.837Z,12.00
2024-01-16T06:31:48.948Z,14.40
2024-01-16T06:32:48.973Z,14.30
2024-01-16T06:33:48.954Z,15.20
2024-01-16T06:34:48.790Z,20.70
2024-01-16T06:35:51.049Z,16.90
2024-01-16T06:36:48.729Z,14.50
2024-01-16T06:37:48.703Z,16.20
2024-01-16T06:38:48.762Z,15.10
2024-01-16T06:39:48.816Z,15.90
2024-01-16T06:40:48.754Z,17.70
2024-01-16T06:41:48.753Z,16.40
2024-01-16T06:42:48.762Z,15.30
2024-01-16T06:43:48.684Z,15.00
2024-01-16T06:44:48.836Z,14.80
2024-01-16T06:45:48.672Z,16.70
2024-01-16T06:46:48.662Z,17.40
2024-01-16T06:47:51.743Z,16.60
2024-01-16T06:48:48.708Z,16.50
2024-01-16T06:49:48.599Z,16.90
2024-01-16T06:50:48.732Z,18.50
2024-01-16T06:51:48.604Z,18.40
2024-01-16T06:52:48.536Z,17.90
2024-01-16T06:53:48.622Z,18.50
2024-01-16T06:54:48.521Z,17.90
2024-01-16T06:55:48.500Z,18.00
2024-01-16T06:56:48.600Z,17.30
2024-01-16T06:57:48.487Z,17.70
2024-01-16T06:58:48.447Z,16.90
2024-01-16T06:59:48.494Z,17.50
2024-01-16T07:00:48.474Z,17.50
2024-01-16T07:01:48.410Z,17.10
2024-01-16T07:02:48.485Z,17.40
2024-01-16T07:03:48.420Z,16.60
2024-01-16T07:04:48.409Z,17.20
2024-01-16T07:05:48.531Z,17.80
2024-01-16T07:06:48.428Z,17.20
2024-01-16T07:07:48.420Z,17.70
2024-01-16T07:08:48.428Z,17.30
2024-01-16T07:09:48.309Z,18.00
2024-01-16T07:10:48.287Z,17.70
2024-01-16T07:11:48.339Z,17.10
2024-01-16T07:12:48.309Z,16.80
2024-01-16T07:13:48.257Z,16.40
2024-01-16T07:14:48.318Z,16.00
2024-01-16T07:15:48.257Z,16.50
2024-01-16T07:16:48.221Z,16.10
2024-01-16T07:17:48.324Z,15.10
2024-01-16T07:18:48.767Z,14.70
2024-01-16T07:19:48.253Z,14.40
2024-01-16T07:20:48.296Z,17.10
2024-01-16T07:21:48.187Z,15.30
2024-01-16T07:22:48.126Z,15.10
2024-01-16T07:23:48.337Z,13.90
2024-01-16T07:24:48.190Z,14.20
2024-01-16T07:25:48.153Z,14.60
2024-01-16T07:26:48.202Z,13.80
2024-01-16T07:27:48.094Z,12.90
2024-01-16T07:28:48.072Z,13.00
2024-01-16T07:29:48.182Z,12.10
2024-01-16T07:30:48.157Z,12.00
2024-01-16T07:31:48.072Z,13.10
2024-01-16T07:32:48.093Z,11.60
2024-01-16T07:33:48.073Z,11.80
2024-01-16T07:34:48.000Z,12.10
2024-01-16T07:35:48.035Z,11.70
2024-01-16T07:36:47.998Z,10.50
2024-01-16T07:37:47.960Z,10.80
2024-01-16T07:38:48.117Z,11.50
2024-01-16T07:39:47.919Z,10.80
2024-01-16T07:40:48.008Z,12.50
2024-01-16T07:41:47.932Z,11.70
2024-01-16T07:42:47.889Z,11.60
2024-01-16T07:43:49.950Z,9.80
2024-01-16T07:44:47.927Z,10.70
2024-01-16T07:45:47.871Z,12.10
2024-01-16T07:46:47.930Z,10.10
2024-01-16T07:47:47.996Z,9.00
2024-01-16T07:48:47.932Z,9.60
2024-01-16T07:49:47.867Z,9.10
2024-01-16T07:50:47.880Z,9.60
2024-01-16T07:51:47.806Z,8.60
2024-01-16T07:52:47.795Z,9.70
2024-01-16T07:53:47.840Z,9.40
2024-01-16T07:54:47.876Z,9.10
2024-01-16T07:55:47.739Z,8.20
2024-01-16T07:56:47.845Z,9.80
2024-01-16T07:57:47.741Z,7.60
2024-01-16T07:58:47.743Z,7.80
2024-01-16T07:59:47.881Z,7.80
2024-01-16T08:00:47.745Z,7.90
2024-01-16T08:01:47.741Z,8.60
2024-01-16T08:02:47.730Z,9.10
2024-01-16T08:03:47.718Z,8.50
2024-01-16T08:04:47.637Z,7.80
2024-01-16T08:05:47.778Z,7.40
2024-01-16T08:06:47.858Z,7.80
2024-01-16T08:07:47.599Z,7.40
2024-01-16T08:08:47.612Z,8.10
2024-01-16T08:09:47.681Z,7.50
2024-01-16T08:10:47.735Z,7.50
2024-01-16T08:11:47.799Z,7.20
2024-01-16T08:12:47.540Z,7.20
2024-01-16T08:13:47.546Z,6.30
2024-01-16T08:14:47.607Z,8.10
2024-01-16T08:15:47.511Z,7.40
2024-01-16T08:16:47.552Z,6.60
2024-01-16T08:17:47.606Z,7.20
2024-01-16T08:18:47.587Z,7.90
2024-01-16T08:19:47.491Z,6.80
2024-01-16T08:20:47.480Z,6.40
2024-01-16T08:21:47.517Z,5.70
2024-01-16T08:22:47.461Z,6.30
2024-01-16T08:23:47.420Z,6.10
2024-01-16T08:24:47.485Z,7.10
2024-01-16T08:25:47.469Z,5.70
2024-01-16T08:26:47.367Z,5.70
2024-01-16T08:27:47.375Z,5.40
2024-01-16T08:28:47.359Z,4.90
2024-01-16T08:29:47.456Z,5.10
2024-01-16T08:30:47.372Z,5.40
2024-01-16T08:31:47.345Z,5.30
2024-01-16T08:32:47.354Z,4.70
2024-01-16T08:33:48.520Z,5.40
2024-01-16T08:34:48.421Z,5.60
2024-01-16T08:35:47.302Z,6.30
2024-01-16T08:36:47.329Z,5.10
2024-01-16T08:37:47.282Z,4.70
2024-01-16T08:38:47.349Z,5.00
2024-01-16T08:39:47.225Z,4.90
2024-01-16T08:40:47.203Z,5.00
2024-01-16T08:41:47.252Z,5.00
2024-01-16T08:42:47.324Z,4.70
2024-01-16T08:43:47.184Z,3.90
2024-01-16T08:44:47.195Z,3.90
2024-01-16T08:45:47.184Z,4.50
2024-01-16T08:46:47.142Z,4.70
2024-01-16T08:47:47.149Z,4.20
2024-01-16T08:48:47.242Z,4.60
2024-01-16T08:49:47.104Z,4.40
2024-01-16T08:50:47.107Z,4.60
2024-01-16T08:51:47.073Z,5.10
2024-01-16T08:52:47.085Z,4.50
2024-01-16T08:53:47.074Z,4.30
2024-01-16T08:54:47.047Z,4.30
2024-01-16T08:55:47.107Z,4.00
2024-01-16T08:56:47.044Z,4.60
2024-01-16T08:57:47.062Z,4.10
2024-01-16T08:58:46.980Z,4.20
2024-01-16T08:59:47.067Z,4.00
2024-01-16T09:00:46.967Z,3.90
2024-01-16T09:01:46.964Z,3.80
2024-01-16T09:02:47.142Z,4.20
2024-01-16T09:03:46.944Z,4.10
2024-01-16T09:04:46.978Z,4.40
2024-01-16T09:05:47.032Z,4.60
2024-01-16T09:06:47.124Z,4.30
2024-01-16T09:07:46.863Z,4.20
2024-01-16T09:08:46.954Z,4.10
2024-01-16T09:09:46.862Z,4.50
2024-01-16T09:10:46.914Z,4.60
2024-01-16T09:11:46.856Z,4.50
2024-01-16T09:12:46.827Z,3.90
2024-01-16T09:13:46.805Z,3.90
2024-01-16T09:14:46.846Z,4.40
2024-01-16T09:15:46.787Z,4.50
2024-01-16T09:16:46.798Z,4.20
2024-01-16T09:17:46.878Z,3.60
2024-01-16T09:18:47.002Z,3.80
2024-01-16T09:19:46.765Z,3.50
2024-01-16T09:20:46.783Z,3.90
2024-01-16T09:21:46.763Z,4.50
2024-01-16T09:22:46.669Z,3.80
2024-01-16T09:23:46.844Z,4.30
2024-01-16T09:24:46.679Z,4.20
2024-01-16T09:25:48.700Z,3.80
2024-01-16T09:26:46.688Z,3.90
2024-01-16T09:27:46.615Z,4.50
2024-01-16T09:28:46.622Z,4.10
2024-01-16T09:29:46.691Z,3.90
2024-01-16T09:30:46.590Z,4.40
2024-01-16T09:31:46.548Z,3.70
2024-01-16T09:32:46.678Z,4.10
2024-01-16T09:33:46.628Z,3.90
2024-01-16T09:34:46.621Z,4.20
2024-01-16T09:35:46.611Z,3.80
2024-01-16T09:36:46.471Z,4.30
2024-01-16T09:37:46.496Z,3.90
2024-01-16T09:38:46.486Z,4.30
2024-01-16T09:39:46.480Z,3.50
2024-01-16T09:40:46.478Z,3.60
2024-01-16T09:41:46.555Z,3.60
2024-01-16T09:42:46.416Z,3.60
2024-01-16T09:43:46.428Z,4.00
2024-01-16T09:44:46.425Z,4.10
2024-01-16T09:45:46.446Z,3.60
2024-01-16T09:46:46.446Z,4.00
2024-01-16T09:47:46.432Z,3.50
2024-01-16T09:48:46.530Z,3.90
2024-01-16T09:49:46.354Z,3.90
2024-01-16T09:50:46.382Z,4.80
2024-01-16T09:51:46.304Z,3.70
2024-01-16T09:52:46.294Z,3.90
2024-01-16T09:53:46.595Z,3.60
2024-01-16T09:54:46.272Z,4.60
2024-01-16T09:55:46.277Z,4.60
2024-01-16T09:56:46.329Z,4.00
2024-01-16T09:57:46.221Z,3.90
2024-01-16T09:58:46.220Z,4.30
2024-01-16T09:59:46.213Z,3.80
2024-01-16T10:00:46.287Z,3.50
2024-01-16T10:01:46.176Z,4.30
2024-01-16T10:02:46.203Z,3.90
2024-01-16T10:03:46.218Z,3.90
2024-01-16T10:04:46.168Z,3.40
2024-01-16T10:05:46.288Z,3.90
2024-01-16T10:06:46.426Z,3.70
2024-01-16T10:07:46.096Z,3.90
2024-01-16T10:08:46.156Z,3.90
2024-01-16T10:09:46.098Z,4.10
2024-01-16T10:10:49.208Z,4.10
2024-01-16T10:11:46.144Z,4.30
2024-01-16T10:12:46.113Z,4.40
2024-01-16T10:13:46.043Z,4.10
2024-01-16T10:14:46.808Z,3.90
2024-01-16T10:15:46.038Z,4.30
2024-01-16T10:16:46.046Z,4.10
2024-01-16T10:17:46.099Z,4.20
2024-01-16T10:18:46.285Z,3.90
2024-01-16T10:19:48.943Z,3.80
2024-01-16T10:20:46.002Z,3.80
2024-01-16T10:21:45.971Z,3.90
2024-01-16T10:22:45.974Z,3.90
2024-01-16T10:23:45.936Z,3.70
2024-01-16T10:24:45.881Z,3.50
2024-01-16T10:25:45.920Z,4.10
2024-01-16T10:26:45.937Z,3.80
2024-01-16T10:27:45.912Z,4.50
2024-01-16T10:28:45.903Z,3.20
2024-01-16T10:29:50.456Z,3.60
2024-01-16T10:30:47.069Z,3.70
2024-01-16T10:31:45.932Z,4.50
2024-01-16T10:32:46.041Z,3.40
2024-01-16T10:33:46.131Z,3.80
2024-01-16T10:34:45.798Z,3.30
2024-01-16T10:35:45.810Z,3.80
2024-01-16T10:36:45.845Z,4.20
2024-01-16T10:37:45.872Z,3.80
2024-01-16T10:38:45.791Z,3.80
2024-01-16T10:39:45.715Z,3.70
2024-01-16T10:40:45.839Z,3.40
2024-01-16T10:41:45.695Z,4.10
2024-01-16T10:42:45.735Z,4.00
2024-01-16T10:43:45.714Z,4.40
2024-01-16T10:44:45.726Z,4.00
2024-01-16T10:45:45.635Z,3.30
2024-01-16T10:46:45.631Z,3.70
2024-01-16T10:47:45.648Z,3.80
2024-01-16T10:48:46.111Z,3.60
2024-01-16T10:49:46.711Z,4.50
2024-01-16T10:50:45.590Z,4.30
2024-01-16T10:51:45.578Z,3.90
2024-01-16T10:52:45.559Z,3.90
2024-01-16T10:53:45.807Z,3.50
2024-01-16T10:54:45.535Z,3.70
2024-01-16T10:55:45.532Z,3.70
2024-01-16T10:56:45.583Z,4.30
2024-01-16T10:57:45.481Z,4.40
2024-01-16T10:58:45.491Z,4.20
2024-01-16T10:59:45.547Z,4.10
2024-01-16T11:00:45.452Z,4.40
2024-01-16T11:01:45.476Z,4.60
2024-01-16T11:02:45.541Z,4.20
2024-01-16T11:03:45.443Z,4.10
2024-01-16T11:04:45.387Z,3.90
2024-01-16T11:05:45.487Z,3.70
2024-01-16T11:06:45.458Z,4.10
2024-01-16T11:07:45.409Z,4.50
2024-01-16T11:08:45.500Z,4.70
2024-01-16T11:09:45.335Z,4.30
2024-01-16T11:10:45.442Z,4.80
2024-01-16T11:11:45.397Z,4.20
2024-01-16T11:12:45.313Z,4.00
2024-01-16T11:13:45.382Z,4.30
2024-01-16T11:14:45.325Z,3.90
2024-01-16T11:15:45.298Z,4.20
2024-01-16T11:16:45.258Z,4.20
2024-01-16T11:17:45.356Z,4.20
2024-01-16T11:18:45.336Z,3.50
2024-01-16T11:20:01.756Z,3.90
2024-01-16T11:21:01.974Z,4.40
2024-01-16T11:21:46.245Z,3.90
2024-01-16T11:22:45.208Z,3.60
2024-01-16T11:23:45.343Z,4.00
2024-01-16T11:24:45.167Z,3.90
2024-01-16T11:25:45.211Z,3.90
2024-01-16T11:26:45.221Z,4.20
2024-01-16T11:27:45.153Z,3.60
2024-01-16T11:28:45.147Z,4.30
2024-01-16T11:29:45.125Z,3.70
2024-01-16T11:30:45.287Z,4.10
2024-01-16T11:31:45.103Z,3.70
2024-01-16T11:32:45.207Z,4.30
2024-01-16T11:33:45.247Z,4.00
2024-01-16T11:34:45.278Z,4.10
2024-01-16T11:35:45.055Z,4.70
2024-01-16T11:36:45.045Z,4.30
2024-01-16T11:37:44.978Z,4.00
2024-01-16T11:38:45.351Z,3.90
2024-01-16T11:39:44.988Z,4.20
2024-01-16T11:40:44.986Z,3.90
2024-01-16T11:41:45.016Z,4.10
2024-01-16T11:42:44.973Z,3.80
2024-01-16T11:43:44.941Z,3.90
2024-01-16T11:44:45.081Z,3.70
2024-01-16T11:45:44.901Z,4.30
2024-01-16T11:46:44.902Z,3.90
2024-01-16T11:47:44.973Z,4.00
2024-01-16T11:48:45.016Z,4.40
2024-01-16T11:49:44.874Z,3.60
2024-01-16T11:50:44.880Z,4.30
2024-01-16T11:51:44.889Z,3.40
2024-01-16T11:52:44.838Z,3.90
2024-01-16T11:53:44.787Z,4.20
2024-01-16T11:54:44.828Z,4.10
2024-01-16T11:55:44.765Z,4.20
2024-01-16T11:56:46.632Z,4.40
2024-01-16T11:57:44.787Z,3.80
2024-01-16T11:58:44.809Z,3.80
2024-01-16T11:59:44.782Z,5.00
2024-01-16T12:00:44.750Z,4.30
2024-01-16T12:01:44.688Z,4.40
2024-01-16T12:02:44.746Z,4.40
2024-01-16T12:03:44.721Z,3.80
2024-01-16T12:04:44.729Z,4.90
2024-01-16T12:05:44.683Z,3.80
2024-01-16T12:06:44.821Z,4.10
2024-01-16T12:07:45.843Z,4.10
2024-01-16T12:08:44.679Z,4.10
2024-01-16T12:09:44.651Z,4.10
2024-01-16T12:10:44.620Z,4.20
2024-01-16T12:11:44.616Z,4.30
2024-01-16T12:12:44.564Z,4.60
2024-01-16T12:13:44.537Z,4.00
2024-01-16T12:14:44.563Z,4.10
2024-01-16T12:15:44.529Z,4.50
2024-01-16T12:16:44.532Z,3.70
2024-01-16T12:17:44.589Z,4.60
2024-01-16T12:18:46.200Z,4.00
2024-01-16T12:19:45.151Z,3.90
2024-01-16T12:20:44.545Z,3.60
2024-01-16T12:21:44.475Z,3.70
2024-01-16T12:22:44.446Z,4.30
2024-01-16T12:23:50.158Z,4.90
2024-01-16T12:24:45.409Z,3.80
2024-01-16T12:26:01.510Z,4.00
2024-01-16T12:26:45.425Z,4.60
2024-01-16T12:27:44.364Z,4.60
2024-01-16T12:28:44.364Z,3.60
2024-01-16T12:29:44.357Z,4.20
2024-01-16T12:30:44.391Z,4.20
2024-01-16T12:31:44.324Z,4.50
2024-01-16T12:32:45.960Z,3.90
2024-01-16T12:33:55.179Z,4.00
2024-01-16T12:34:45.427Z,4.10
2024-01-16T12:35:44.319Z,4.00
2024-01-16T12:36:44.282Z,4.10
2024-01-16T12:37:44.290Z,4.30
2024-01-16T12:38:44.260Z,4.40
2024-01-16T12:39:44.256Z,4.00
2024-01-16T12:40:44.348Z,4.10
2024-01-16T12:41:44.332Z,4.00
2024-01-16T12:42:44.197Z,4.50
2024-01-16T12:43:44.187Z,4.20
2024-01-16T12:44:44.237Z,4.20
2024-01-16T12:45:44.295Z,4.50
2024-01-16T12:46:44.179Z,4.30
2024-01-16T12:47:44.293Z,4.60
2024-01-16T12:48:53.314Z,4.60
2024-01-16T12:49:45.258Z,4.00
2024-01-16T12:50:44.106Z,4.40
2024-01-16T12:51:44.072Z,4.50
2024-01-16T12:52:44.129Z,4.10
2024-01-16T12:53:44.101Z,3.90
2024-01-16T12:54:44.107Z,4.10
2024-01-16T12:55:44.161Z,4.20
2024-01-16T12:56:44.119Z,4.00
2024-01-16T12:57:44.048Z,4.10
2024-01-16T12:58:44.043Z,3.80
2024-01-16T12:59:44.081Z,4.20
2024-01-16T13:00:44.031Z,4.00
2024-01-16T13:01:44.070Z,4.30
2024-01-16T13:02:44.055Z,4.50
2024-01-16T13:03:44.059Z,4.50
2024-01-16T13:04:43.959Z,4.10
2024-01-16T13:05:44.214Z,4.70
2024-01-16T13:06:44.095Z,4.10
2024-01-16T13:07:43.852Z,4.90
2024-01-16T13:08:43.848Z,4.10
2024-01-16T13:09:43.835Z,4.30
2024-01-16T13:10:43.871Z,4.60